Time;durP1;ratioP1;P1;durP2;ratioP2;P2;SDS_P1;SDS_P2;PMS_P1;PMS_P2;Temp;Humidity;BMP_temperature;BMP_pressure;BME280_temperature;BME280_humidity;BME280_pressure;Samples;Min_cycle;Max_cycle;Signal;HPM_P1;HPM_P2
2023/08/21 00:01:20;;;;;;;9.60;7.63;;;22.80;76.30;;;;;;5114633;28;20435;-75
2023/08/21 00:03:47;;;;;;;9.40;6.43;;;22.80;76.80;;;;;;5115362;28;20472;-76
2023/08/21 00:06:14;;;;;;;9.53;6.87;;;22.80;77.30;;;;;;5115154;28;20470;-76
2023/08/21 00:08:41;;;;;;;12.03;6.90;;;22.70;77.70;;;;;;5114924;28;20921;-75
2023/08/21 00:11:08;;;;;;;9.73;7.10;;;22.70;78.20;;;;;;5114903;28;20502;-75
2023/08/21 00:13:37;;;;;;;11.23;7.07;;;22.70;78.00;;;;;;5114965;28;20526;-75
2023/08/21 00:16:04;;;;;;;9.63;6.70;;;22.70;77.80;;;;;;5114312;28;20925;-75
2023/08/21 00:18:31;;;;;;;7.50;6.13;;;22.80;77.70;;;;;;5114561;28;20885;-75
2023/08/21 00:20:58;;;;;;;8.50;6.33;;;22.70;77.30;;;;;;5114284;28;20492;-75
2023/08/21 00:23:25;;;;;;;9.70;6.07;;;22.70;77.60;;;;;;5114570;28;20460;-75
2023/08/21 00:25:52;;;;;;;10.40;6.33;;;22.60;77.70;;;;;;5114794;28;20511;-75
2023/08/21 00:28:19;;;;;;;8.03;6.00;;;22.50;78.20;;;;;;5114824;28;20471;-76
2023/08/21 00:30:47;;;;;;;7.13;6.40;;;22.50;78.40;;;;;;5114303;28;20443;-75
2023/08/21 00:33:14;;;;;;;11.63;7.40;;;22.50;78.70;;;;;;5113525;28;20471;-77
2023/08/21 00:35:43;;;;;;;8.20;6.37;;;22.40;79.00;;;;;;5113002;28;20471;-75
2023/08/21 00:38:10;;;;;;;7.60;5.93;;;22.30;79.20;;;;;;5114158;28;20538;-81
2023/08/21 00:40:37;;;;;;;8.00;5.93;;;22.30;79.40;;;;;;5114184;28;20480;-75
2023/08/21 00:43:04;;;;;;;9.20;5.30;;;22.30;79.20;;;;;;5113195;28;20495;-75
2023/08/21 00:45:31;;;;;;;8.53;6.63;;;22.30;79.20;;;;;;5113966;28;20478;-76
2023/08/21 00:48:00;;;;;;;7.93;4.93;;;22.30;79.20;;;;;;5114075;28;20470;-75
2023/08/21 00:50:27;;;;;;;7.90;6.10;;;22.30;79.40;;;;;;5114530;28;20495;-75
2023/08/21 00:52:54;;;;;;;8.03;6.20;;;22.20;79.40;;;;;;5113655;28;20517;-75
2023/08/21 00:55:21;;;;;;;9.30;6.40;;;22.20;79.50;;;;;;5113864;28;20466;-76
2023/08/21 00:57:48;;;;;;;8.73;6.17;;;22.20;79.50;;;;;;5114240;28;20465;-75
2023/08/21 01:00:16;;;;;;;8.40;6.80;;;22.20;79.20;;;;;;5114160;28;20954;-75
2023/08/21 01:02:43;;;;;;;6.40;5.67;;;22.10;79.20;;;;;;5112785;28;20470;-75
2023/08/21 01:05:11;;;;;;;14.00;6.60;;;22.10;79.30;;;;;;5113268;28;20914;-75
2023/08/21 01:07:48;;;;;;;11.47;6.73;;;22.10;79.20;;;;;;5113768;28;20509;-76
2023/08/21 01:10:21;;;;;;;9.03;6.33;;;22.10;79.60;;;;;;5113799;28;20477;-75
2023/08/21 01:12:57;;;;;;;8.37;6.27;;;22.10;79.40;;;;;;5113684;28;20427;-75
2023/08/21 01:15:26;;;;;;;10.77;6.17;;;22.10;79.60;;;;;;5113312;28;20514;-76
2023/08/21 01:17:54;;;;;;;9.30;6.97;;;22.10;79.50;;;;;;5113620;28;20499;-75
2023/08/21 01:20:24;;;;;;;10.40;6.53;;;22.10;79.50;;;;;;5113580;28;20520;-75
2023/08/21 01:22:51;;;;;;;10.73;6.80;;;22.00;79.30;;;;;;5113709;28;20471;-75
2023/08/21 01:25:19;;;;;;;7.60;5.90;;;22.00;79.30;;;;;;5113652;28;20972;-75
2023/08/21 01:27:51;;;;;;;7.70;5.57;;;21.90;79.30;;;;;;5113528;28;20473;-75
2023/08/21 01:30:18;;;;;;;8.30;6.07;;;21.90;79.50;;;;;;5112944;28;20454;-75
2023/08/21 01:32:53;;;;;;;14.83;6.03;;;21.80;79.80;;;;;;5113446;28;20459;-75
2023/08/21 01:35:26;;;;;;;9.57;5.90;;;21.80;80.10;;;;;;5113558;28;20617;-75
2023/08/21 01:37:53;;;;;;;7.67;5.63;;;21.80;80.10;;;;;;5113865;28;20535;-75
2023/08/21 01:40:26;;;;;;;10.20;6.73;;;21.80;80.10;;;;;;5113551;28;20504;-75
2023/08/21 01:42:54;;;;;;;6.70;5.90;;;21.80;79.70;;;;;;5113275;28;20460;-75
2023/08/21 01:45:22;;;;;;;9.17;7.17;;;21.90;79.70;;;;;;5113181;28;21057;-75
2023/08/21 01:47:49;;;;;;;6.87;5.40;;;21.80;79.80;;;;;;5113337;28;20487;-75
2023/08/21 01:50:17;;;;;;;7.73;5.70;;;21.80;80.10;;;;;;5113937;28;20841;-75
2023/08/21 01:52:44;;;;;;;7.80;6.00;;;21.70;80.40;;;;;;5113227;28;20804;-75
2023/08/21 01:55:13;;;;;;;8.50;6.20;;;21.70;80.30;;;;;;5114434;28;20435;-75
2023/08/21 01:57:42;;;;;;;6.10;5.30;;;21.70;80.20;;;;;;5117384;28;20438;-75
2023/08/21 02:00:13;;;;;;;8.23;6.03;;;21.70;79.60;;;;;;5117169;28;20527;-75
2023/08/21 02:02:45;;;;;;;9.13;6.00;;;21.70;79.60;;;;;;5117218;28;20554;-75
2023/08/21 02:05:14;;;;;;;9.27;5.60;;;21.60;79.70;;;;;;5117289;28;20475;-75
2023/08/21 02:07:43;;;;;;;7.70;5.23;;;21.60;79.60;;;;;;5116967;28;20437;-75
2023/08/21 02:10:11;;;;;;;9.77;5.00;;;21.60;79.70;;;;;;5117196;28;20454;-75
2023/08/21 02:12:38;;;;;;;6.80;5.80;;;21.60;79.40;;;;;;5117103;28;20491;-75
2023/08/21 02:15:10;;;;;;;8.47;6.27;;;21.50;79.40;;;;;;5116863;28;20435;-75
2023/08/21 02:17:37;;;;;;;6.00;5.23;;;21.50;79.60;;;;;;5117066;28;20423;-75
2023/08/21 02:20:10;;;;;;;7.27;5.33;;;21.40;79.60;;;;;;5117142;28;20446;-76
2023/08/21 02:22:40;;;;;;;8.73;5.93;;;21.40;80.00;;;;;;5116948;28;20427;-75
2023/08/21 02:25:09;;;;;;;8.00;5.60;;;21.30;80.50;;;;;;5116689;28;20438;-75
2023/08/21 02:27:38;;;;;;;6.30;5.30;;;21.30;80.90;;;;;;5116780;28;20430;-75
2023/08/21 02:30:08;;;;;;;8.77;6.43;;;21.30;81.10;;;;;;5116924;28;20909;-75
2023/08/21 02:32:35;;;;;;;7.63;5.80;;;21.30;81.00;;;;;;5116406;28;20431;-75
2023/08/21 02:35:06;;;;;;;6.80;5.20;;;21.30;80.60;;;;;;5116719;28;20479;-75
2023/08/21 02:37:33;;;;;;;6.73;5.87;;;21.30;80.20;;;;;;5116746;28;20447;-75
2023/08/21 02:40:05;;;;;;;7.30;5.77;;;21.20;80.30;;;;;;5116568;28;20520;-76
2023/08/21 02:42:34;;;;;;;6.13;4.87;;;21.20;80.50;;;;;;5114959;28;20427;-76
2023/08/21 02:45:08;;;;;;;7.07;5.00;;;21.10;80.70;;;;;;5116293;28;20469;-75
2023/08/21 02:47:37;;;;;;;9.07;5.47;;;21.10;81.10;;;;;;5116821;28;20462;-75
2023/08/21 02:50:09;;;;;;;8.60;6.20;;;21.10;81.10;;;;;;5116466;28;20440;-75
2023/08/21 02:52:39;;;;;;;8.33;6.10;;;21.00;81.10;;;;;;5115997;28;20438;-75
2023/08/21 02:55:08;;;;;;;6.80;5.50;;;21.00;81.10;;;;;;5116187;28;20517;-75
2023/08/21 02:57:35;;;;;;;7.57;5.47;;;21.00;81.00;;;;;;5115034;28;20938;-79
2023/08/21 03:00:02;;;;;;;9.23;6.00;;;20.90;81.00;;;;;;5116067;28;20863;-75
2023/08/21 03:02:29;;;;;;;9.83;5.87;;;20.90;81.30;;;;;;5116463;28;20762;-75
2023/08/21 03:04:58;;;;;;;9.27;6.90;;;20.80;81.40;;;;;;5116396;28;20470;-75
2023/08/21 03:07:25;;;;;;;10.30;5.87;;;20.80;81.70;;;;;;5115287;28;20528;-75
2023/08/21 03:09:52;;;;;;;10.07;6.97;;;20.70;82.00;;;;;;5116077;28;20498;-76
2023/08/21 03:12:19;;;;;;;8.77;6.37;;;20.70;82.20;;;;;;5115515;28;20503;-75
2023/08/21 03:14:47;;;;;;;9.40;8.00;;;20.70;82.70;;;;;;5116017;28;20431;-75
2023/08/21 03:17:14;;;;;;;12.30;7.30;;;20.70;83.10;;;;;;5115725;28;20469;-75
2023/08/21 03:19:43;;;;;;;8.53;6.37;;;20.60;83.20;;;;;;5115665;28;20465;-75
2023/08/21 03:22:11;;;;;;;10.20;6.80;;;20.60;83.20;;;;;;5116110;28;20470;-75
2023/08/21 03:24:38;;;;;;;7.67;5.80;;;20.60;82.70;;;;;;5115353;28;21029;-75
2023/08/21 03:27:06;;;;;;;9.00;6.07;;;20.60;82.30;;;;;;5115880;28;20553;-75
2023/08/21 03:29:33;;;;;;;8.70;6.23;;;20.50;82.70;;;;;;5115800;28;20433;-75
2023/08/21 03:32:01;;;;;;;14.00;8.63;;;20.40;83.50;;;;;;5115477;28;20437;-75
2023/08/21 03:34:28;;;;;;;12.03;6.70;;;20.30;83.80;;;;;;5115992;28;20837;-75
2023/08/21 03:36:55;;;;;;;7.50;5.50;;;20.30;83.80;;;;;;5115413;28;20438;-75
2023/08/21 03:39:24;;;;;;;7.30;5.80;;;20.30;83.60;;;;;;5115278;28;20439;-75
2023/08/21 03:41:51;;;;;;;7.77;6.10;;;20.30;83.10;;;;;;5115548;28;20521;-75
2023/08/21 03:44:18;;;;;;;10.10;6.37;;;20.30;83.10;;;;;;5115494;28;20447;-76
2023/08/21 03:46:45;;;;;;;8.97;6.77;;;20.30;83.20;;;;;;5115456;28;20896;-77
2023/08/21 03:49:12;;;;;;;8.47;7.20;;;20.30;83.20;;;;;;5115409;28;20864;-76
2023/08/21 03:51:39;;;;;;;8.93;6.70;;;20.30;83.20;;;;;;5115131;28;20496;-75
2023/08/21 03:54:08;;;;;;;7.40;5.40;;;20.20;83.50;;;;;;5115100;28;20441;-75
2023/08/21 03:56:36;;;;;;;14.10;6.20;;;20.20;83.60;;;;;;5115016;28;20437;-75
2023/08/21 03:59:03;;;;;;;6.80;6.03;;;20.20;84.10;;;;;;5115212;28;20524;-75
2023/08/21 04:01:35;;;;;;;8.17;5.77;;;20.20;84.60;;;;;;5114552;28;20472;-75
2023/08/21 04:04:02;;;;;;;10.27;5.60;;;20.20;84.80;;;;;;5114515;28;20462;-75
2023/08/21 04:06:29;;;;;;;7.13;5.07;;;20.20;84.50;;;;;;5115044;28;20474;-76
2023/08/21 04:08:56;;;;;;;9.30;5.97;;;20.20;84.60;;;;;;5114754;28;20431;-75
2023/08/21 04:11:23;;;;;;;7.00;5.67;;;20.20;85.00;;;;;;5115096;28;20431;-76
2023/08/21 04:13:58;;;;;;;11.07;5.67;;;20.20;84.80;;;;;;5115012;28;20435;-75
2023/08/21 04:16:27;;;;;;;6.67;5.40;;;20.10;84.70;;;;;;5114812;28;20482;-75
2023/08/21 04:18:54;;;;;;;7.57;5.60;;;20.20;84.70;;;;;;5114220;28;20958;-75
2023/08/21 04:21:21;;;;;;;7.17;5.50;;;20.10;84.90;;;;;;5114479;28;20481;-75
2023/08/21 04:23:49;;;;;;;7.00;5.27;;;20.00;85.00;;;;;;5114493;28;20431;-76
2023/08/21 04:26:16;;;;;;;6.60;4.80;;;20.00;85.30;;;;;;5114585;28;20554;-75
2023/08/21 04:28:43;;;;;;;6.73;4.97;;;20.00;85.10;;;;;;5114332;28;20465;-76
2023/08/21 04:31:11;;;;;;;6.40;4.63;;;19.90;84.90;;;;;;5113498;28;20550;-75
2023/08/21 04:33:39;;;;;;;11.03;5.90;;;19.90;84.90;;;;;;5114003;28;20964;-75
2023/08/21 04:36:06;;;;;;;12.17;6.50;;;19.90;85.00;;;;;;5114368;28;20469;-75
2023/08/21 04:38:33;;;;;;;10.73;6.10;;;19.90;84.70;;;;;;5112274;28;20884;-75
2023/08/21 04:41:07;;;;;;;10.10;7.13;;;19.90;84.40;;;;;;5114062;28;20437;-76
2023/08/21 04:43:34;;;;;;;9.70;7.43;;;19.90;84.80;;;;;;5113195;28;20426;-75
2023/08/21 04:46:01;;;;;;;6.50;5.60;;;19.90;85.40;;;;;;5112801;28;20520;-77
2023/08/21 04:48:30;;;;;;;7.30;6.17;;;19.90;85.60;;;;;;5113505;28;20463;-76
2023/08/21 04:50:57;;;;;;;8.30;6.27;;;20.00;85.90;;;;;;5113511;28;20454;-75
2023/08/21 04:53:24;;;;;;;9.53;6.50;;;20.00;85.90;;;;;;5113422;28;20794;-75
2023/08/21 04:55:51;;;;;;;9.00;7.23;;;20.00;85.80;;;;;;5113469;28;20457;-77
2023/08/21 04:58:18;;;;;;;9.10;6.80;;;20.00;85.60;;;;;;5112664;28;20472;-76
2023/08/21 05:00:46;;;;;;;9.90;8.00;;;20.00;85.60;;;;;;5113278;28;20470;-75
2023/08/21 05:03:13;;;;;;;8.30;5.90;;;20.00;85.90;;;;;;5110845;28;20434;-83
2023/08/21 05:05:53;;;;;;;11.27;6.73;;;20.10;86.20;;;;;;5111473;28;20521;-76
2023/08/21 05:08:20;;;;;;;10.73;5.80;;;20.10;86.40;;;;;;5113222;28;20496;-75
2023/08/21 05:10:47;;;;;;;7.13;5.27;;;20.20;86.60;;;;;;5112405;28;20855;-75
2023/08/21 05:13:16;;;;;;;7.97;5.63;;;20.20;86.90;;;;;;5111854;28;20530;-75
2023/08/21 05:15:43;;;;;;;6.07;5.23;;;20.30;87.10;;;;;;5112390;28;20437;-76
2023/08/21 05:18:10;;;;;;;10.17;6.53;;;20.30;87.20;;;;;;5111724;28;20529;-76
2023/08/21 05:20:37;;;;;;;9.90;6.27;;;20.30;87.40;;;;;;5112495;28;20466;-75
2023/08/21 05:23:06;;;;;;;15.60;6.60;;;20.40;87.50;;;;;;5112652;28;20808;-77
2023/08/21 05:25:33;;;;;;;14.20;7.33;;;20.40;87.70;;;;;;5112655;28;20526;-75
2023/08/21 05:28:00;;;;;;;12.47;6.33;;;20.50;88.20;;;;;;5112930;28;20614;-75
2023/08/21 05:30:27;;;;;;;9.80;6.50;;;20.50;88.40;;;;;;5112076;28;20443;-75
2023/08/21 05:32:54;;;;;;;7.57;5.87;;;20.60;88.60;;;;;;5112865;28;20865;-76
2023/08/21 05:35:21;;;;;;;8.17;6.30;;;20.70;88.80;;;;;;5112464;28;20477;-75
2023/08/21 05:37:48;;;;;;;9.30;5.67;;;20.70;88.30;;;;;;5112832;28;20513;-75
2023/08/21 05:40:17;;;;;;;11.30;6.07;;;20.80;88.10;;;;;;5112567;28;20495;-75
2023/08/21 05:42:45;;;;;;;12.87;5.27;;;20.90;88.10;;;;;;5112745;28;20484;-79
2023/08/21 05:45:12;;;;;;;7.00;5.43;;;20.90;87.50;;;;;;5112766;28;20441;-76
2023/08/21 05:47:42;;;;;;;8.17;5.77;;;21.00;87.50;;;;;;5112152;28;20462;-76
2023/08/21 05:50:10;;;;;;;7.40;5.60;;;21.10;87.40;;;;;;5112600;28;20423;-77
2023/08/21 05:52:37;;;;;;;8.70;5.77;;;21.20;87.40;;;;;;5111731;28;20493;-75
2023/08/21 05:55:06;;;;;;;6.93;5.53;;;21.20;86.70;;;;;;5108497;28;20778;-76
2023/08/21 05:57:35;;;;;;;9.83;7.63;;;21.30;86.40;;;;;;5111595;28;20766;-76
2023/08/21 06:00:02;;;;;;;8.53;6.50;;;21.30;86.80;;;;;;5110875;28;20442;-77
2023/08/21 06:02:36;;;;;;;10.70;7.73;;;21.40;86.20;;;;;;5106332;28;20499;-76
2023/08/21 06:05:04;;;;;;;12.73;7.43;;;21.40;86.20;;;;;;5111759;28;20445;-75
2023/08/21 06:07:33;;;;;;;10.13;6.40;;;21.50;86.10;;;;;;5109622;28;20497;-79
2023/08/21 06:10:05;;;;;;;8.17;6.60;;;21.50;85.70;;;;;;5110192;28;20507;-76
2023/08/21 06:12:35;;;;;;;9.67;6.17;;;21.50;86.00;;;;;;5102862;28;20837;-84
2023/08/21 06:15:02;;;;;;;7.53;5.67;;;21.60;85.80;;;;;;5099277;28;20799;-76
2023/08/21 06:17:30;;;;;;;8.27;6.00;;;21.70;86.60;;;;;;5110675;28;20804;-76
2023/08/21 06:20:05;;;;;;;7.10;5.87;;;21.80;86.80;;;;;;5089927;28;20436;-76
2023/08/21 06:22:33;;;;;;;13.90;6.27;;;21.90;86.90;;;;;;5108225;28;20430;-77
2023/08/21 06:25:00;;;;;;;8.03;5.70;;;22.00;87.30;;;;;;5110929;28;20517;-76
2023/08/21 06:27:27;;;;;;;8.53;5.43;;;22.20;86.80;;;;;;5108253;28;20914;-76
2023/08/21 06:29:57;;;;;;;7.00;5.80;;;22.30;87.30;;;;;;5110176;28;20523;-76
2023/08/21 06:32:24;;;;;;;8.50;5.63;;;22.40;87.30;;;;;;5110281;28;20427;-76
2023/08/21 06:34:52;;;;;;;10.63;5.40;;;22.50;86.20;;;;;;5111014;28;20431;-75
2023/08/21 06:37:19;;;;;;;10.17;7.20;;;22.60;85.20;;;;;;5111404;28;20438;-76
2023/08/21 06:39:47;;;;;;;8.80;5.90;;;22.70;84.30;;;;;;5094884;28;20436;-75
2023/08/21 06:42:15;;;;;;;6.50;5.33;;;22.70;84.50;;;;;;5104855;28;20427;-77
2023/08/21 06:44:42;;;;;;;6.17;5.53;;;22.80;84.80;;;;;;5115362;28;20884;-75
2023/08/21 06:47:11;;;;;;;7.50;6.20;;;23.00;84.80;;;;;;5115147;28;20470;-76
2023/08/21 06:49:38;;;;;;;9.70;5.67;;;23.10;85.00;;;;;;5115146;28;20792;-76
2023/08/21 06:52:07;;;;;;;6.87;5.43;;;23.20;84.90;;;;;;5115857;28;20893;-76
2023/08/21 06:54:35;;;;;;;10.60;7.20;;;23.30;84.80;;;;;;5116186;28;20446;-76
2023/08/21 06:57:04;;;;;;;11.53;6.30;;;23.50;84.70;;;;;;5116182;28;20435;-76
2023/08/21 06:59:35;;;;;;;7.23;5.40;;;23.60;84.70;;;;;;5116267;28;20438;-75
2023/08/21 07:02:04;;;;;;;8.47;5.93;;;23.80;85.10;;;;;;5115767;28;20889;-76
2023/08/21 07:04:34;;;;;;;11.60;5.70;;;23.90;83.60;;;;;;5116060;27;20435;-77
2023/08/21 07:07:01;;;;;;;7.60;4.97;;;24.00;82.20;;;;;;5115974;27;20815;-76
2023/08/21 07:09:28;;;;;;;7.43;5.40;;;24.10;81.70;;;;;;5115643;28;20466;-76
2023/08/21 07:11:56;;;;;;;8.03;5.83;;;24.20;80.70;;;;;;5115536;28;20426;-76
2023/08/21 07:14:23;;;;;;;7.40;5.60;;;24.30;81.40;;;;;;5126963;27;20438;-76
2023/08/21 07:16:51;;;;;;;11.00;5.70;;;24.40;81.90;;;;;;5128448;27;20427;-76
2023/08/21 07:19:18;;;;;;;6.70;5.40;;;24.60;81.50;;;;;;5115488;28;20479;-76
2023/08/21 07:21:51;;;;;;;8.23;4.83;;;24.70;81.50;;;;;;5115621;28;20431;-76
2023/08/21 07:24:18;;;;;;;7.90;5.57;;;24.90;81.70;;;;;;5112063;28;20472;-75
2023/08/21 07:26:45;;;;;;;7.53;5.50;;;25.00;81.00;;;;;;5113935;28;20534;-76
2023/08/21 07:29:12;;;;;;;9.43;5.97;;;25.20;80.30;;;;;;5115743;28;20491;-76
2023/08/21 07:31:39;;;;;;;9.50;5.63;;;25.30;79.20;;;;;;5115055;28;20534;-77
2023/08/21 07:34:06;;;;;;;7.80;6.03;;;25.40;78.50;;;;;;5114343;28;20431;-76
2023/08/21 07:36:34;;;;;;;7.43;5.87;;;25.60;78.40;;;;;;5115631;28;20426;-76
2023/08/21 07:39:02;;;;;;;14.43;6.87;;;25.80;78.00;;;;;;5122490;27;20462;-75
2023/08/21 07:41:30;;;;;;;6.90;5.23;;;25.90;78.40;;;;;;5135805;27;20438;-75
2023/08/21 07:43:57;;;;;;;15.77;6.40;;;26.20;77.70;;;;;;5135771;27;20518;-76
2023/08/21 07:46:24;;;;;;;9.60;5.63;;;26.30;77.30;;;;;;5135975;27;20768;-76
2023/08/21 07:48:51;;;;;;;7.27;5.20;;;26.40;72.50;;;;;;5122943;27;20809;-76
2023/08/21 07:51:18;;;;;;;10.53;6.87;;;26.60;71.40;;;;;;5115173;28;20828;-76
2023/08/21 07:53:45;;;;;;;12.53;6.20;;;26.70;69.10;;;;;;5120039;27;20517;-75
2023/08/21 07:56:13;;;;;;;10.90;5.30;;;26.80;70.70;;;;;;5130282;27;20458;-76
2023/08/21 07:58:40;;;;;;;13.43;5.50;;;27.00;72.00;;;;;;5135745;27;20521;-76
2023/08/21 08:01:07;;;;;;;14.03;5.80;;;27.30;72.50;;;;;;5122103;27;20469;-76
2023/08/21 08:03:34;;;;;;;17.37;7.80;;;27.60;72.50;;;;;;5114673;28;20495;-76
2023/08/21 08:06:01;;;;;;;13.67;5.40;;;27.80;72.20;;;;;;5114137;28;20798;-76
2023/08/21 08:08:29;;;;;;;9.83;5.17;;;28.00;72.00;;;;;;5110533;28;20562;-76
2023/08/21 08:10:56;;;;;;;11.67;6.40;;;28.30;71.50;;;;;;5113669;28;20569;-76
2023/08/21 08:13:24;;;;;;;7.23;5.73;;;28.60;70.60;;;;;;5114535;28;20517;-76
2023/08/21 08:15:51;;;;;;;10.70;6.50;;;28.80;70.30;;;;;;5117696;27;20469;-76
2023/08/21 08:18:26;;;;;;;9.60;5.60;;;29.20;69.30;;;;;;5127962;27;20529;-78
2023/08/21 08:20:53;;;;;;;5.67;4.50;;;29.50;68.30;;;;;;5093201;28;20925;-75
2023/08/21 08:23:23;;;;;;;6.83;5.30;;;29.80;66.60;;;;;;5108739;27;20469;-77
2023/08/21 08:25:50;;;;;;;11.80;5.80;;;30.10;65.60;;;;;;5135013;27;20429;-76
2023/08/21 08:28:16;;;;;;;12.07;5.07;;;30.40;65.20;;;;;;5120660;27;20879;-76
2023/08/21 08:30:45;;;;;;;8.70;5.77;;;30.70;65.20;;;;;;5117434;27;20838;-76
2023/08/21 08:33:12;;;;;;;11.80;5.83;;;31.00;62.60;;;;;;5113916;28;20469;-75
2023/08/21 08:35:40;;;;;;;7.80;5.40;;;31.20;58.60;;;;;;5114122;28;20514;-76
2023/08/21 08:38:09;;;;;;;8.97;5.17;;;31.40;58.50;;;;;;5094260;28;20446;-76
2023/08/21 08:40:43;;;;;;;8.33;5.47;;;31.50;56.90;;;;;;5095234;28;20436;-76
2023/08/21 08:43:12;;;;;;;7.20;5.00;;;31.80;57.80;;;;;;5113733;28;20910;-76
2023/08/21 08:45:40;;;;;;;7.00;5.40;;;32.00;57.70;;;;;;5113880;28;20905;-75
2023/08/21 08:48:09;;;;;;;6.60;5.90;;;32.30;55.80;;;;;;5113384;28;20554;-77
2023/08/21 08:50:36;;;;;;;7.67;5.60;;;32.50;54.50;;;;;;5108532;28;21087;-76
2023/08/21 08:53:04;;;;;;;7.20;5.40;;;32.80;53.90;;;;;;5113208;28;20517;-76
2023/08/21 08:55:31;;;;;;;6.53;5.67;;;33.00;53.70;;;;;;5113512;28;20898;-77
2023/08/21 08:57:58;;;;;;;13.10;7.20;;;33.20;53.00;;;;;;5112605;28;20955;-76
2023/08/21 09:00:27;;;;;;;9.10;5.70;;;33.40;52.70;;;;;;5113901;28;20438;-77
2023/08/21 09:02:55;;;;;;;8.23;5.27;;;33.50;52.50;;;;;;5130794;27;20516;-76
2023/08/21 09:05:23;;;;;;;7.90;6.47;;;33.60;50.40;;;;;;5131195;27;20846;-76
2023/08/21 09:08:04;;;;;;;7.00;5.40;;;33.70;50.30;;;;;;5132685;27;20556;-77
2023/08/21 09:10:31;;;;;;;8.10;6.00;;;33.70;49.60;;;;;;5133735;27;20957;-76
2023/08/21 09:13:01;;;;;;;8.80;5.90;;;33.90;48.60;;;;;;5132880;27;20508;-76
2023/08/21 09:15:29;;;;;;;8.90;5.83;;;34.00;49.10;;;;;;5134224;27;20437;-76
2023/08/21 09:17:57;;;;;;;8.30;6.07;;;34.20;48.10;;;;;;5134168;27;20429;-76
2023/08/21 09:20:25;;;;;;;7.33;5.90;;;34.30;48.10;;;;;;5133982;27;20448;-76
2023/08/21 09:22:56;;;;;;;6.63;4.83;;;34.40;46.60;;;;;;5134035;27;20469;-76
2023/08/21 09:25:24;;;;;;;9.10;6.27;;;34.50;46.90;;;;;;5134307;27;20425;-76
2023/08/21 09:27:54;;;;;;;7.63;6.50;;;34.60;47.20;;;;;;5134186;27;20523;-76
2023/08/21 09:30:20;;;;;;;7.07;6.37;;;34.80;47.00;;;;;;5134162;28;20432;-76
2023/08/21 09:32:55;;;;;;;6.90;5.97;;;35.00;47.30;;;;;;5133820;28;20454;-76
2023/08/21 09:35:23;;;;;;;6.97;6.30;;;35.10;46.40;;;;;;5134359;28;20436;-76
2023/08/21 09:37:52;;;;;;;6.70;6.00;;;35.20;46.10;;;;;;5133994;28;20472;-76
2023/08/21 09:40:20;;;;;;;7.57;5.50;;;35.30;45.50;;;;;;5133914;27;20421;-76
2023/08/21 09:42:53;;;;;;;7.50;5.27;;;35.50;45.30;;;;;;5134194;28;20474;-76
2023/08/21 09:45:22;;;;;;;7.17;6.47;;;35.60;45.20;;;;;;5134041;28;20429;-76
2023/08/21 09:47:49;;;;;;;7.80;6.17;;;35.80;45.00;;;;;;5133938;28;20475;-76
2023/08/21 09:50:16;;;;;;;7.33;6.50;;;35.90;45.20;;;;;;5133710;28;20847;-76
2023/08/21 09:52:46;;;;;;;6.70;5.77;;;36.00;43.70;;;;;;5133779;27;20935;-76
2023/08/21 09:55:16;;;;;;;10.20;6.20;;;36.10;42.70;;;;;;5134045;27;20517;-77
2023/08/21 09:57:43;;;;;;;6.67;5.97;;;36.20;42.50;;;;;;5134143;28;20458;-75
2023/08/21 10:00:15;;;;;;;7.23;5.97;;;36.30;42.90;;;;;;5134041;27;20469;-75
2023/08/21 10:02:45;;;;;;;8.73;6.50;;;36.30;42.40;;;;;;5134119;27;20423;-76
2023/08/21 10:05:13;;;;;;;6.40;5.80;;;36.40;42.00;;;;;;5133854;27;20430;-76
2023/08/21 10:07:41;;;;;;;9.83;5.87;;;36.50;43.60;;;;;;5133550;28;20464;-77
2023/08/21 10:10:10;;;;;;;7.10;6.40;;;36.70;42.80;;;;;;5133688;28;20513;-76
2023/08/21 10:12:38;;;;;;;9.40;6.23;;;36.90;42.90;;;;;;5134297;28;20508;-76
2023/08/21 10:15:08;;;;;;;8.00;6.17;;;37.00;41.20;;;;;;5133644;28;20541;-76
2023/08/21 10:17:35;;;;;;;7.87;5.53;;;37.10;41.50;;;;;;5137529;27;20755;-76
2023/08/21 10:20:04;;;;;;;8.30;5.03;;;37.20;41.40;;;;;;5137848;27;20521;-76
2023/08/21 10:22:43;;;;;;;7.50;5.90;;;37.30;41.60;;;;;;5137857;27;20530;-76
2023/08/21 10:25:17;;;;;;;6.47;5.17;;;37.50;40.40;;;;;;5137277;27;20485;-76
2023/08/21 10:27:47;;;;;;;12.00;6.70;;;37.60;40.20;;;;;;5137308;27;20431;-76
2023/08/21 10:30:15;;;;;;;9.67;5.47;;;37.70;38.80;;;;;;5137339;27;20427;-76
2023/08/21 10:32:47;;;;;;;7.17;5.70;;;37.70;38.60;;;;;;5137392;27;20507;-76
2023/08/21 10:35:17;;;;;;;6.87;5.50;;;37.80;39.80;;;;;;5137499;27;20443;-77
2023/08/21 10:38:07;;;;;;;6.90;6.20;;;37.90;39.50;;;;;;5137076;27;20892;-76
2023/08/21 10:40:34;;;;;;;6.37;5.27;;;37.90;39.10;;;;;;5137397;27;20811;-76
2023/08/21 10:43:03;;;;;;;6.60;5.07;;;37.90;38.80;;;;;;5137007;27;20924;-77
2023/08/21 10:45:31;;;;;;;5.73;4.83;;;37.90;37.90;;;;;;5136896;27;20484;-77
2023/08/21 10:47:58;;;;;;;7.13;5.13;;;38.00;37.80;;;;;;5136695;27;20466;-78
2023/08/21 10:50:25;;;;;;;8.17;5.20;;;38.00;36.30;;;;;;5137073;27;20435;-76
2023/08/21 10:52:53;;;;;;;6.17;5.00;;;38.00;35.60;;;;;;5136787;27;20781;-77
2023/08/21 10:55:21;;;;;;;8.53;4.60;;;37.90;35.70;;;;;;5137045;27;20459;-77
2023/08/21 10:57:49;;;;;;;6.57;4.90;;;37.90;35.20;;;;;;5136995;27;20467;-76
2023/08/21 11:00:20;;;;;;;11.03;5.10;;;37.80;36.10;;;;;;5136906;27;20467;-76
2023/08/21 11:02:50;;;;;;;7.80;5.70;;;37.90;37.70;;;;;;5121081;27;20523;-77
2023/08/21 11:05:17;;;;;;;8.53;5.70;;;37.90;37.70;;;;;;5116253;28;20428;-78
2023/08/21 11:07:46;;;;;;;5.50;4.83;;;37.90;37.00;;;;;;5115159;28;20485;-77
2023/08/21 11:10:14;;;;;;;5.37;4.87;;;37.90;37.20;;;;;;5115661;28;20973;-76
2023/08/21 11:12:51;;;;;;;7.93;4.37;;;38.00;36.90;;;;;;5116170;28;20429;-76
2023/08/21 11:15:20;;;;;;;7.90;4.43;;;38.00;36.60;;;;;;5116215;28;20826;-76
2023/08/21 11:17:55;;;;;;;8.93;4.77;;;38.00;35.70;;;;;;5115640;28;20997;-76
2023/08/21 11:20:22;;;;;;;7.83;4.77;;;38.00;35.50;;;;;;5116038;28;20718;-76
2023/08/21 11:22:49;;;;;;;7.57;4.60;;;38.00;35.30;;;;;;5116022;28;20856;-76
2023/08/21 11:25:17;;;;;;;6.37;4.53;;;37.90;34.40;;;;;;5115235;28;20950;-81
2023/08/21 11:27:43;;;;;;;5.63;4.33;;;38.00;35.50;;;;;;5115095;28;20433;-78
2023/08/21 11:30:13;;;;;;;5.37;3.50;;;38.00;35.30;;;;;;5114169;28;20463;-76
2023/08/21 11:32:41;;;;;;;7.90;4.10;;;38.00;34.80;;;;;;5115399;28;20906;-76
2023/08/21 11:35:09;;;;;;;4.80;3.87;;;38.00;34.60;;;;;;5114992;28;20987;-76
2023/08/21 11:37:44;;;;;;;6.47;4.57;;;38.00;34.40;;;;;;5115190;28;20935;-76
2023/08/21 11:40:11;;;;;;;7.13;4.10;;;38.00;34.50;;;;;;5115420;28;20834;-76
2023/08/21 11:42:38;;;;;;;6.83;4.63;;;38.00;34.90;;;;;;5115514;27;20456;-76
2023/08/21 11:45:06;;;;;;;11.53;5.00;;;38.00;34.60;;;;;;5115424;28;20491;-76
2023/08/21 11:47:34;;;;;;;7.00;4.37;;;38.00;34.10;;;;;;5115372;28;20886;-76
2023/08/21 11:50:06;;;;;;;7.20;4.90;;;38.00;32.60;;;;;;5113370;28;20464;-76
2023/08/21 11:52:35;;;;;;;6.80;4.47;;;37.90;32.60;;;;;;5114028;28;20515;-76
2023/08/21 11:55:02;;;;;;;5.80;4.40;;;37.90;32.20;;;;;;5115042;28;20746;-76
2023/08/21 11:57:32;;;;;;;7.97;4.50;;;37.90;32.70;;;;;;5114253;28;20442;-77
2023/08/21 11:59:59;;;;;;;4.87;4.17;;;37.90;32.20;;;;;;5114494;28;20421;-77
2023/08/21 12:02:27;;;;;;;5.80;3.83;;;37.90;32.70;;;;;;5112275;28;20459;-76
2023/08/21 12:04:55;;;;;;;6.53;4.20;;;37.90;32.80;;;;;;5112744;28;20813;-77
2023/08/21 12:07:30;;;;;;;6.33;4.50;;;37.90;33.10;;;;;;5114451;28;20469;-76
2023/08/21 12:09:56;;;;;;;6.60;3.53;;;37.90;33.00;;;;;;5114287;28;20478;-76
2023/08/21 12:12:24;;;;;;;5.33;3.30;;;37.90;33.10;;;;;;5114485;28;20520;-77
2023/08/21 12:14:51;;;;;;;7.83;4.27;;;37.90;31.10;;;;;;5114765;28;20424;-76
2023/08/21 12:17:18;;;;;;;7.00;4.17;;;37.80;32.10;;;;;;5114622;28;20460;-76
2023/08/21 12:19:45;;;;;;;5.70;3.40;;;37.80;31.70;;;;;;5114728;28;20522;-76
2023/08/21 12:22:12;;;;;;;7.43;4.60;;;37.70;31.60;;;;;;5113870;28;20525;-76
2023/08/21 12:24:41;;;;;;;4.90;4.07;;;37.70;32.80;;;;;;5114382;28;20437;-76
2023/08/21 12:27:08;;;;;;;5.27;4.20;;;37.70;33.20;;;;;;5114500;28;20481;-76
2023/08/21 12:29:35;;;;;;;7.90;3.90;;;37.70;32.80;;;;;;5113837;28;20526;-76
2023/08/21 12:32:03;;;;;;;5.50;4.13;;;37.70;32.80;;;;;;5114088;28;20467;-76
2023/08/21 12:34:30;;;;;;;4.73;3.70;;;37.70;32.70;;;;;;5114175;28;20449;-76
2023/08/21 12:36:58;;;;;;;7.30;4.30;;;37.70;32.30;;;;;;5114445;28;20519;-77
2023/08/21 12:39:25;;;;;;;5.50;4.57;;;37.70;31.70;;;;;;5113146;28;20772;-77
2023/08/21 12:41:53;;;;;;;9.27;4.90;;;37.60;32.30;;;;;;5114252;28;20440;-76
2023/08/21 12:44:20;;;;;;;5.53;3.57;;;37.60;31.60;;;;;;5113782;28;20911;-76
2023/08/21 12:46:47;;;;;;;5.13;3.63;;;37.50;30.90;;;;;;5114148;28;20471;-77
2023/08/21 12:49:14;;;;;;;4.50;3.33;;;37.50;30.80;;;;;;5113470;28;20984;-77
2023/08/21 12:51:44;;;;;;;5.23;3.90;;;37.50;30.70;;;;;;5113165;28;20921;-77